sensor_id;sensor_type;location;lat;lon;timestamp;temperature;humidity
66343;DHT22;53144;51.524;5.080;2022-09-30T00:01:03;6.05;96.02
66343;DHT22;53144;51.524;5.080;2022-09-30T00:03:29;5.98;95.92
66343;DHT22;53144;51.524;5.080;2022-09-30T00:05:56;6.02;96.22
66343;DHT22;53144;51.524;5.080;2022-09-30T00:08:22;6.09;96.31
66343;DHT22;53144;51.524;5.080;2022-09-30T00:11:00;6.09;96.87
66343;DHT22;53144;51.524;5.080;2022-09-30T00:13:25;6.11;97.05
66343;DHT22;53144;51.524;5.080;2022-09-30T00:15:51;6.08;96.85
66343;DHT22;53144;51.524;5.080;2022-09-30T00:18:16;6.04;96.90
66343;DHT22;53144;51.524;5.080;2022-09-30T00:20:42;5.99;97.16
66343;DHT22;53144;51.524;5.080;2022-09-30T00:23:07;5.94;96.62
66343;DHT22;53144;51.524;5.080;2022-09-30T00:25:33;5.92;96.57
66343;DHT22;53144;51.524;5.080;2022-09-30T00:27:58;5.90;96.16
66343;DHT22;53144;51.524;5.080;2022-09-30T00:30:24;5.82;96.09
66343;DHT22;53144;51.524;5.080;2022-09-30T00:32:49;5.75;96.07
66343;DHT22;53144;51.524;5.080;2022-09-30T00:35:14;5.91;96.64
66343;DHT22;53144;51.524;5.080;2022-09-30T00:37:40;5.91;96.76
66343;DHT22;53144;51.524;5.080;2022-09-30T00:40:06;5.94;96.67
66343;DHT22;53144;51.524;5.080;2022-09-30T00:42:32;5.90;96.62
66343;DHT22;53144;51.524;5.080;2022-09-30T00:45:09;5.79;96.21
66343;DHT22;53144;51.524;5.080;2022-09-30T00:47:53;5.77;96.09
66343;DHT22;53144;51.524;5.080;2022-09-30T00:50:38;5.68;96.03
66343;DHT22;53144;51.524;5.080;2022-09-30T00:53:24;5.61;96.27
66343;DHT22;53144;51.524;5.080;2022-09-30T00:56:21;5.61;96.35
66343;DHT22;53144;51.524;5.080;2022-09-30T00:59:22;5.55;96.00
66343;DHT22;53144;51.524;5.080;2022-09-30T01:01:49;5.53;96.13
66343;DHT22;53144;51.524;5.080;2022-09-30T01:04:17;5.50;96.29
66343;DHT22;53144;51.524;5.080;2022-09-30T01:06:48;5.53;96.31
66343;DHT22;53144;51.524;5.080;2022-09-30T01:09:13;5.53;96.11
66343;DHT22;53144;51.524;5.080;2022-09-30T01:11:39;5.46;95.86
66343;DHT22;53144;51.524;5.080;2022-09-30T01:14:18;5.40;95.93
66343;DHT22;53144;51.524;5.080;2022-09-30T01:31:09;5.30;96.59
66343;DHT22;53144;51.524;5.080;2022-09-30T01:37:06;5.37;97.24
66343;DHT22;53144;51.524;5.080;2022-09-30T01:39:54;5.39;97.54
66343;DHT22;53144;51.524;5.080;2022-09-30T01:45:17;5.26;96.35
66343;DHT22;53144;51.524;5.080;2022-09-30T01:50:30;5.13;96.32
66343;DHT22;53144;51.524;5.080;2022-09-30T01:56:14;5.15;96.41
66343;DHT22;53144;51.524;5.080;2022-09-30T01:58:51;5.15;96.31
66343;DHT22;53144;51.524;5.080;2022-09-30T02:01:26;5.19;96.47
66343;DHT22;53144;51.524;5.080;2022-09-30T02:03:58;5.23;96.84
66343;DHT22;53144;51.524;5.080;2022-09-30T02:06:31;5.26;97.08
66343;DHT22;53144;51.524;5.080;2022-09-30T02:09:11;5.22;97.03
66343;DHT22;53144;51.524;5.080;2022-09-30T02:11:38;5.19;97.16
66343;DHT22;53144;51.524;5.080;2022-09-30T02:14:21;5.22;97.21
66343;DHT22;53144;51.524;5.080;2022-09-30T02:16:53;5.19;97.46
66343;DHT22;53144;51.524;5.080;2022-09-30T02:19:27;5.20;97.16
66343;DHT22;53144;51.524;5.080;2022-09-30T02:21:59;5.19;96.89
66343;DHT22;53144;51.524;5.080;2022-09-30T02:24:26;5.11;97.09
66343;DHT22;53144;51.524;5.080;2022-09-30T02:26:57;5.09;96.82
66343;DHT22;53144;51.524;5.080;2022-09-30T02:29:28;4.96;96.17
66343;DHT22;53144;51.524;5.080;2022-09-30T02:32:00;4.97;96.20
66343;DHT22;53144;51.524;5.080;2022-09-30T02:34:37;4.92;96.12
66343;DHT22;53144;51.524;5.080;2022-09-30T02:37:19;4.85;96.11
66343;DHT22;53144;51.524;5.080;2022-09-30T02:39:55;4.74;96.33
66343;DHT22;53144;51.524;5.080;2022-09-30T02:42:25;4.81;96.69
66343;DHT22;53144;51.524;5.080;2022-09-30T02:44:54;4.84;96.75
66343;DHT22;53144;51.524;5.080;2022-09-30T02:52:46;4.64;95.95
66343;DHT22;53144;51.524;5.080;2022-09-30T02:57:56;4.82;96.86
66343;DHT22;53144;51.524;5.080;2022-09-30T03:00:24;4.84;97.21
66343;DHT22;53144;51.524;5.080;2022-09-30T03:02:59;4.76;97.46
66343;DHT22;53144;51.524;5.080;2022-09-30T03:05:27;4.68;96.78
66343;DHT22;53144;51.524;5.080;2022-09-30T03:07:53;4.62;96.70
66343;DHT22;53144;51.524;5.080;2022-09-30T03:10:18;4.60;96.56
66343;DHT22;53144;51.524;5.080;2022-09-30T03:18:31;4.60;97.25
66343;DHT22;53144;51.524;5.080;2022-09-30T03:30:10;4.50;96.69
66343;DHT22;53144;51.524;5.080;2022-09-30T03:33:05;4.48;97.11
66343;DHT22;53144;51.524;5.080;2022-09-30T03:35:46;4.47;97.11
66343;DHT22;53144;51.524;5.080;2022-09-30T03:46:46;4.40;96.77
66343;DHT22;53144;51.524;5.080;2022-09-30T03:49:20;4.41;97.02
66343;DHT22;53144;51.524;5.080;2022-09-30T03:51:50;4.33;97.05
66343;DHT22;53144;51.524;5.080;2022-09-30T03:54:16;4.34;96.71
66343;DHT22;53144;51.524;5.080;2022-09-30T03:56:45;4.43;97.05
66343;DHT22;53144;51.524;5.080;2022-09-30T03:59:12;4.41;97.12
66343;DHT22;53144;51.524;5.080;2022-09-30T04:01:41;4.40;97.06
66343;DHT22;53144;51.524;5.080;2022-09-30T04:04:07;4.41;97.34
66343;DHT22;53144;51.524;5.080;2022-09-30T04:06:32;4.44;97.64
66343;DHT22;53144;51.524;5.080;2022-09-30T04:08:58;4.48;97.85
66343;DHT22;53144;51.524;5.080;2022-09-30T04:11:23;4.48;97.55
66343;DHT22;53144;51.524;5.080;2022-09-30T04:13:49;4.53;97.32
66343;DHT22;53144;51.524;5.080;2022-09-30T04:16:17;4.53;97.19
66343;DHT22;53144;51.524;5.080;2022-09-30T04:18:43;4.47;97.01
66343;DHT22;53144;51.524;5.080;2022-09-30T04:21:10;4.48;97.16
66343;DHT22;53144;51.524;5.080;2022-09-30T04:23:38;4.48;97.32
66343;DHT22;53144;51.524;5.080;2022-09-30T04:26:05;4.51;97.44
66343;DHT22;53144;51.524;5.080;2022-09-30T04:28:32;4.44;97.03
66343;DHT22;53144;51.524;5.080;2022-09-30T04:30:59;4.47;97.24
66343;DHT22;53144;51.524;5.080;2022-09-30T04:33:24;4.48;97.32
66343;DHT22;53144;51.524;5.080;2022-09-30T04:35:57;4.44;96.82
66343;DHT22;53144;51.524;5.080;2022-09-30T04:38:23;4.40;96.96
66343;DHT22;53144;51.524;5.080;2022-09-30T04:40:50;4.41;96.81
66343;DHT22;53144;51.524;5.080;2022-09-30T04:43:16;4.43;97.05
66343;DHT22;53144;51.524;5.080;2022-09-30T04:45:44;4.38;96.97
66343;DHT22;53144;51.524;5.080;2022-09-30T04:48:10;4.38;97.26
66343;DHT22;53144;51.524;5.080;2022-09-30T04:50:36;4.38;97.22
66343;DHT22;53144;51.524;5.080;2022-09-30T04:53:01;4.36;97.02
66343;DHT22;53144;51.524;5.080;2022-09-30T04:55:28;4.30;96.94
66343;DHT22;53144;51.524;5.080;2022-09-30T04:57:53;4.24;96.75
66343;DHT22;53144;51.524;5.080;2022-09-30T05:00:19;4.21;96.91
66343;DHT22;53144;51.524;5.080;2022-09-30T05:02:45;4.17;96.87
66343;DHT22;53144;51.524;5.080;2022-09-30T05:05:10;4.20;97.10
66343;DHT22;53144;51.524;5.080;2022-09-30T05:07:35;4.26;97.41
66343;DHT22;53144;51.524;5.080;2022-09-30T05:10:01;4.20;97.13
66343;DHT22;53144;51.524;5.080;2022-09-30T05:12:26;4.20;97.32
66343;DHT22;53144;51.524;5.080;2022-09-30T05:14:52;4.14;97.05
66343;DHT22;53144;51.524;5.080;2022-09-30T05:17:17;4.16;97.02
66343;DHT22;53144;51.524;5.080;2022-09-30T05:19:42;4.14;97.02
66343;DHT22;53144;51.524;5.080;2022-09-30T05:22:11;4.16;96.95
66343;DHT22;53144;51.524;5.080;2022-09-30T05:24:37;4.07;97.19
66343;DHT22;53144;51.524;5.080;2022-09-30T05:27:02;4.09;97.32
66343;DHT22;53144;51.524;5.080;2022-09-30T05:29:32;4.13;97.46
66343;DHT22;53144;51.524;5.080;2022-09-30T05:31:57;4.10;97.33
66343;DHT22;53144;51.524;5.080;2022-09-30T05:34:25;4.11;97.38
66343;DHT22;53144;51.524;5.080;2022-09-30T05:36:50;4.16;97.60
66343;DHT22;53144;51.524;5.080;2022-09-30T05:39:15;4.17;97.47
66343;DHT22;53144;51.524;5.080;2022-09-30T05:41:41;4.13;97.28
66343;DHT22;53144;51.524;5.080;2022-09-30T05:44:09;4.17;97.33
66343;DHT22;53144;51.524;5.080;2022-09-30T05:46:35;4.13;97.32
66343;DHT22;53144;51.524;5.080;2022-09-30T05:49:00;4.14;97.04
66343;DHT22;53144;51.524;5.080;2022-09-30T05:51:26;4.14;97.25
66343;DHT22;53144;51.524;5.080;2022-09-30T05:53:52;4.11;97.10
66343;DHT22;53144;51.524;5.080;2022-09-30T05:56:18;4.14;97.45
66343;DHT22;53144;51.524;5.080;2022-09-30T05:58:43;4.29;98.19
66343;DHT22;53144;51.524;5.080;2022-09-30T06:01:11;4.26;97.82
66343;DHT22;53144;51.524;5.080;2022-09-30T06:03:37;4.32;98.00
66343;DHT22;53144;51.524;5.080;2022-09-30T06:06:05;4.16;97.18
66343;DHT22;53144;51.524;5.080;2022-09-30T06:08:34;4.23;97.57
66343;DHT22;53144;51.524;5.080;2022-09-30T06:11:00;4.14;97.39
66343;DHT22;53144;51.524;5.080;2022-09-30T06:13:26;4.16;97.48
66343;DHT22;53144;51.524;5.080;2022-09-30T06:16:00;4.14;97.55
66343;DHT22;53144;51.524;5.080;2022-09-30T06:18:26;4.27;97.94
66343;DHT22;53144;51.524;5.080;2022-09-30T06:20:59;4.34;97.90
66343;DHT22;53144;51.524;5.080;2022-09-30T06:23:26;4.34;97.72
66343;DHT22;53144;51.524;5.080;2022-09-30T06:25:53;4.38;97.60
66343;DHT22;53144;51.524;5.080;2022-09-30T06:28:22;4.41;97.82
66343;DHT22;53144;51.524;5.080;2022-09-30T06:30:48;4.51;98.01
66343;DHT22;53144;51.524;5.080;2022-09-30T06:33:14;4.61;98.36
66343;DHT22;53144;51.524;5.080;2022-09-30T06:35:43;4.67;98.19
66343;DHT22;53144;51.524;5.080;2022-09-30T06:38:10;4.79;98.61
66343;DHT22;53144;51.524;5.080;2022-09-30T06:40:36;4.85;98.14
66343;DHT22;53144;51.524;5.080;2022-09-30T06:43:02;4.88;97.96
66343;DHT22;53144;51.524;5.080;2022-09-30T06:45:28;5.00;98.31
66343;DHT22;53144;51.524;5.080;2022-09-30T06:48:01;5.15;99.00
66343;DHT22;53144;51.524;5.080;2022-09-30T06:50:28;5.22;98.63
66343;DHT22;53144;51.524;5.080;2022-09-30T06:52:58;5.32;98.55
66343;DHT22;53144;51.524;5.080;2022-09-30T06:55:25;5.43;98.63
66343;DHT22;53144;51.524;5.080;2022-09-30T06:57:52;5.63;98.87
66343;DHT22;53144;51.524;5.080;2022-09-30T07:00:17;5.82;99.24
66343;DHT22;53144;51.524;5.080;2022-09-30T07:02:42;5.95;99.17
66343;DHT22;53144;51.524;5.080;2022-09-30T07:05:10;6.12;99.13
66343;DHT22;53144;51.524;5.080;2022-09-30T07:07:36;6.18;99.04
66343;DHT22;53144;51.524;5.080;2022-09-30T07:10:02;6.34;99.04
66343;DHT22;53144;51.524;5.080;2022-09-30T07:12:28;6.42;99.12
66343;DHT22;53144;51.524;5.080;2022-09-30T07:14:54;6.62;99.31
66343;DHT22;53144;51.524;5.080;2022-09-30T07:17:25;6.71;99.30
66343;DHT22;53144;51.524;5.080;2022-09-30T07:19:51;6.83;99.31
66343;DHT22;53144;51.524;5.080;2022-09-30T07:22:17;7.01;99.28
66343;DHT22;53144;51.524;5.080;2022-09-30T07:24:52;7.21;99.11
66343;DHT22;53144;51.524;5.080;2022-09-30T07:27:17;7.33;99.10
66343;DHT22;53144;51.524;5.080;2022-09-30T07:29:43;7.45;98.98
66343;DHT22;53144;51.524;5.080;2022-09-30T07:32:09;7.53;98.76
66343;DHT22;53144;51.524;5.080;2022-09-30T07:34:35;7.66;98.66
66343;DHT22;53144;51.524;5.080;2022-09-30T07:37:01;7.76;98.52
66343;DHT22;53144;51.524;5.080;2022-09-30T07:39:29;7.95;98.22
66343;DHT22;53144;51.524;5.080;2022-09-30T07:41:55;8.05;98.18
66343;DHT22;53144;51.524;5.080;2022-09-30T07:44:21;8.21;97.72
66343;DHT22;53144;51.524;5.080;2022-09-30T07:46:49;8.34;97.87
66343;DHT22;53144;51.524;5.080;2022-09-30T07:49:16;8.45;97.63
66343;DHT22;53144;51.524;5.080;2022-09-30T07:52:00;8.58;97.17
66343;DHT22;53144;51.524;5.080;2022-09-30T07:54:28;8.66;97.01
66343;DHT22;53144;51.524;5.080;2022-09-30T07:56:55;8.83;97.00
66343;DHT22;53144;51.524;5.080;2022-09-30T07:59:21;8.87;96.31
66343;DHT22;53144;51.524;5.080;2022-09-30T08:01:46;8.99;96.56
66343;DHT22;53144;51.524;5.080;2022-09-30T08:04:13;9.11;96.53
66343;DHT22;53144;51.524;5.080;2022-09-30T08:06:42;9.18;96.30
66343;DHT22;53144;51.524;5.080;2022-09-30T08:09:09;9.34;95.95
66343;DHT22;53144;51.524;5.080;2022-09-30T08:11:36;9.45;95.41
66343;DHT22;53144;51.524;5.080;2022-09-30T08:14:02;9.58;95.36
66343;DHT22;53144;51.524;5.080;2022-09-30T08:16:28;9.68;95.30
66343;DHT22;53144;51.524;5.080;2022-09-30T08:18:54;9.79;95.38
66343;DHT22;53144;51.524;5.080;2022-09-30T08:21:21;9.90;95.51
66343;DHT22;53144;51.524;5.080;2022-09-30T08:23:46;10.03;95.13
66343;DHT22;53144;51.524;5.080;2022-09-30T08:26:11;10.16;94.65
66343;DHT22;53144;51.524;5.080;2022-09-30T08:28:38;10.23;94.50
66343;DHT22;53144;51.524;5.080;2022-09-30T08:31:10;10.33;94.82
66343;DHT22;53144;51.524;5.080;2022-09-30T08:33:36;10.46;94.81
66343;DHT22;53144;51.524;5.080;2022-09-30T08:36:06;10.64;94.77
66343;DHT22;53144;51.524;5.080;2022-09-30T08:38:33;10.79;94.48
66343;DHT22;53144;51.524;5.080;2022-09-30T08:46:50;11.18;92.30
66343;DHT22;53144;51.524;5.080;2022-09-30T08:49:58;11.30;93.15
66343;DHT22;53144;51.524;5.080;2022-09-30T08:52:33;11.42;92.60
66343;DHT22;53144;51.524;5.080;2022-09-30T08:55:00;11.49;92.34
66343;DHT22;53144;51.524;5.080;2022-09-30T08:57:35;11.54;92.55
66343;DHT22;53144;51.524;5.080;2022-09-30T09:00:03;11.64;92.16
66343;DHT22;53144;51.524;5.080;2022-09-30T09:02:42;11.69;92.25
66343;DHT22;53144;51.524;5.080;2022-09-30T09:08:02;11.95;90.77
66343;DHT22;53144;51.524;5.080;2022-09-30T09:10:43;11.97;90.87
66343;DHT22;53144;51.524;5.080;2022-09-30T09:13:24;12.10;90.24
66343;DHT22;53144;51.524;5.080;2022-09-30T09:16:30;12.26;90.02
66343;DHT22;53144;51.524;5.080;2022-09-30T09:19:10;12.32;89.44
66343;DHT22;53144;51.524;5.080;2022-09-30T09:21:49;12.39;89.10
66343;DHT22;53144;51.524;5.080;2022-09-30T09:24:23;12.46;88.80
66343;DHT22;53144;51.524;5.080;2022-09-30T09:26:53;12.52;89.48
66343;DHT22;53144;51.524;5.080;2022-09-30T09:29:34;12.62;89.04
66343;DHT22;53144;51.524;5.080;2022-09-30T09:32:12;12.76;88.05
66343;DHT22;53144;51.524;5.080;2022-09-30T09:34:38;12.77;87.58
66343;DHT22;53144;51.524;5.080;2022-09-30T09:37:43;12.96;87.41
66343;DHT22;53144;51.524;5.080;2022-09-30T09:43:35;13.45;85.12
66343;DHT22;53144;51.524;5.080;2022-09-30T09:48:27;13.58;83.60
66343;DHT22;53144;51.524;5.080;2022-09-30T09:51:59;13.68;84.53
66343;DHT22;53144;51.524;5.080;2022-09-30T09:54:22;13.73;83.69
66343;DHT22;53144;51.524;5.080;2022-09-30T09:56:48;13.79;82.88
66343;DHT22;53144;51.524;5.080;2022-09-30T09:59:18;13.86;82.18
66343;DHT22;53144;51.524;5.080;2022-09-30T10:01:44;14.20;82.72
66343;DHT22;53144;51.524;5.080;2022-09-30T10:04:17;14.44;81.49
66343;DHT22;53144;51.524;5.080;2022-09-30T10:06:50;14.40;81.00
66343;DHT22;53144;51.524;5.080;2022-09-30T10:09:28;14.41;80.65
66343;DHT22;53144;51.524;5.080;2022-09-30T10:14:33;14.78;78.39
66343;DHT22;53144;51.524;5.080;2022-09-30T10:17:01;15.26;78.75
66343;DHT22;53144;51.524;5.080;2022-09-30T10:19:29;16.29;75.24
66343;DHT22;53144;51.524;5.080;2022-09-30T10:22:27;17.36;71.56
66343;DHT22;53144;51.524;5.080;2022-09-30T10:25:27;18.23;68.27
66343;DHT22;53144;51.524;5.080;2022-09-30T10:27:54;18.82;66.60
66343;DHT22;53144;51.524;5.080;2022-09-30T10:33:01;20.12;62.78
66343;DHT22;53144;51.524;5.080;2022-09-30T10:35:30;20.02;60.92
66343;DHT22;53144;51.524;5.080;2022-09-30T10:38:03;19.03;65.40
66343;DHT22;53144;51.524;5.080;2022-09-30T10:40:31;19.27;64.37
66343;DHT22;53144;51.524;5.080;2022-09-30T10:42:57;19.87;60.82
66343;DHT22;53144;51.524;5.080;2022-09-30T10:45:42;20.63;61.64
66343;DHT22;53144;51.524;5.080;2022-09-30T10:48:16;20.74;58.75
66343;DHT22;53144;51.524;5.080;2022-09-30T10:50:51;20.29;60.63
66343;DHT22;53144;51.524;5.080;2022-09-30T10:53:22;19.92;61.04
66343;DHT22;53144;51.524;5.080;2022-09-30T10:55:49;20.87;60.34
66343;DHT22;53144;51.524;5.080;2022-09-30T11:00:54;20.56;58.12
66343;DHT22;53144;51.524;5.080;2022-09-30T11:03:39;20.74;59.15
66343;DHT22;53144;51.524;5.080;2022-09-30T11:06:10;20.84;58.08
66343;DHT22;53144;51.524;5.080;2022-09-30T11:08:47;21.14;57.43
66343;DHT22;53144;51.524;5.080;2022-09-30T11:11:25;21.15;57.28
66343;DHT22;53144;51.524;5.080;2022-09-30T11:16:33;20.69;58.52
66343;DHT22;53144;51.524;5.080;2022-09-30T11:19:02;20.39;58.66
66343;DHT22;53144;51.524;5.080;2022-09-30T11:21:42;19.81;61.54
66343;DHT22;53144;51.524;5.080;2022-09-30T11:24:22;20.30;60.21
66343;DHT22;53144;51.524;5.080;2022-09-30T11:27:09;21.44;57.94
66343;DHT22;53144;51.524;5.080;2022-09-30T11:42:58;21.25;55.46
66343;DHT22;53144;51.524;5.080;2022-09-30T11:51:08;21.10;54.84
66343;DHT22;53144;51.524;5.080;2022-09-30T11:53:39;21.01;56.69
66343;DHT22;53144;51.524;5.080;2022-09-30T11:56:37;20.46;55.49
66343;DHT22;53144;51.524;5.080;2022-09-30T11:59:09;20.07;57.48
66343;DHT22;53144;51.524;5.080;2022-09-30T12:01:40;19.27;59.87
66343;DHT22;53144;51.524;5.080;2022-09-30T12:06:53;18.85;61.62
66343;DHT22;53144;51.524;5.080;2022-09-30T12:09:24;17.96;63.31
66343;DHT22;53144;51.524;5.080;2022-09-30T12:12:01;18.76;61.57
66343;DHT22;53144;51.524;5.080;2022-09-30T12:14:32;17.97;64.61
66343;DHT22;53144;51.524;5.080;2022-09-30T12:17:01;18.65;61.83
66343;DHT22;53144;51.524;5.080;2022-09-30T12:22:30;20.32;57.95
66343;DHT22;53144;51.524;5.080;2022-09-30T12:24:57;20.53;57.18
66343;DHT22;53144;51.524;5.080;2022-09-30T12:27:35;20.01;55.13
66343;DHT22;53144;51.524;5.080;2022-09-30T12:30:09;20.36;55.35
66343;DHT22;53144;51.524;5.080;2022-09-30T12:49:13;18.72;59.29
66343;DHT22;53144;51.524;5.080;2022-09-30T12:51:44;18.43;59.75
66343;DHT22;53144;51.524;5.080;2022-09-30T12:54:17;18.02;60.96
66343;DHT22;53144;51.524;5.080;2022-09-30T12:56:45;17.48;61.00
66343;DHT22;53144;51.524;5.080;2022-09-30T12:59:12;17.46;63.89
66343;DHT22;53144;51.524;5.080;2022-09-30T13:01:39;18.55;59.73
66343;DHT22;53144;51.524;5.080;2022-09-30T13:15:21;18.00;61.34
66343;DHT22;53144;51.524;5.080;2022-09-30T13:17:46;17.63;63.30
66343;DHT22;53144;51.524;5.080;2022-09-30T13:20:48;18.20;60.03
66343;DHT22;53144;51.524;5.080;2022-09-30T13:23:40;18.73;57.69
66343;DHT22;53144;51.524;5.080;2022-09-30T13:31:31;19.18;58.09
66343;DHT22;53144;51.524;5.080;2022-09-30T13:36:31;19.05;57.79
66343;DHT22;53144;51.524;5.080;2022-09-30T13:41:49;19.43;57.45
66343;DHT22;53144;51.524;5.080;2022-09-30T13:45:00;18.64;60.90
66343;DHT22;53144;51.524;5.080;2022-09-30T13:47:23;18.40;61.31
66343;DHT22;53144;51.524;5.080;2022-09-30T13:52:41;18.31;59.42
66343;DHT22;53144;51.524;5.080;2022-09-30T13:55:19;18.06;60.67
66343;DHT22;53144;51.524;5.080;2022-09-30T14:09:00;17.45;62.05
66343;DHT22;53144;51.524;5.080;2022-09-30T14:12:03;17.45;61.13
66343;DHT22;53144;51.524;5.080;2022-09-30T14:20:29;17.41;61.20
66343;DHT22;53144;51.524;5.080;2022-09-30T14:22:58;17.34;60.57
66343;DHT22;53144;51.524;5.080;2022-09-30T14:25:24;17.27;61.74
66343;DHT22;53144;51.524;5.080;2022-09-30T14:28:08;17.38;62.68
66343;DHT22;53144;51.524;5.080;2022-09-30T14:30:41;17.32;62.10
66343;DHT22;53144;51.524;5.080;2022-09-30T14:33:27;17.30;60.68
66343;DHT22;53144;51.524;5.080;2022-09-30T14:36:01;17.15;60.59
66343;DHT22;53144;51.524;5.080;2022-09-30T14:38:29;17.18;61.67
66343;DHT22;53144;51.524;5.080;2022-09-30T14:40:58;17.27;61.58
66343;DHT22;53144;51.524;5.080;2022-09-30T14:43:31;17.22;60.52
66343;DHT22;53144;51.524;5.080;2022-09-30T14:46:04;17.21;60.59
66343;DHT22;53144;51.524;5.080;2022-09-30T14:48:36;17.08;61.68
66343;DHT22;53144;51.524;5.080;2022-09-30T14:51:10;16.95;62.39
66343;DHT22;53144;51.524;5.080;2022-09-30T14:54:00;16.77;62.89
66343;DHT22;53144;51.524;5.080;2022-09-30T14:56:28;16.80;63.91
66343;DHT22;53144;51.524;5.080;2022-09-30T14:58:55;16.81;63.04
66343;DHT22;53144;51.524;5.080;2022-09-30T15:01:34;16.85;62.21
66343;DHT22;53144;51.524;5.080;2022-09-30T15:04:54;16.79;63.27
66343;DHT22;53144;51.524;5.080;2022-09-30T15:07:08;16.83;63.98
66343;DHT22;53144;51.524;5.080;2022-09-30T15:09:37;16.77;62.15
66343;DHT22;53144;51.524;5.080;2022-09-30T15:12:14;16.69;62.44
66343;DHT22;53144;51.524;5.080;2022-09-30T15:14:54;16.63;61.78
66343;DHT22;53144;51.524;5.080;2022-09-30T15:19:53;16.62;62.74
66343;DHT22;53144;51.524;5.080;2022-09-30T15:22:21;16.59;63.18
66343;DHT22;53144;51.524;5.080;2022-09-30T15:24:48;16.55;63.50
66343;DHT22;53144;51.524;5.080;2022-09-30T15:27:20;16.51;64.06
66343;DHT22;53144;51.524;5.080;2022-09-30T15:30:01;16.36;63.27
66343;DHT22;53144;51.524;5.080;2022-09-30T15:32:29;16.30;63.27
66343;DHT22;53144;51.524;5.080;2022-09-30T15:34:55;16.22;64.22
66343;DHT22;53144;51.524;5.080;2022-09-30T15:37:25;16.11;65.35
66343;DHT22;53144;51.524;5.080;2022-09-30T15:39:58;16.11;65.28
66343;DHT22;53144;51.524;5.080;2022-09-30T15:43:00;16.19;65.11
66343;DHT22;53144;51.524;5.080;2022-09-30T15:45:30;16.16;65.11
66343;DHT22;53144;51.524;5.080;2022-09-30T15:50:53;16.05;65.33
66343;DHT22;53144;51.524;5.080;2022-09-30T15:53:44;16.14;65.95
66343;DHT22;53144;51.524;5.080;2022-09-30T15:56:29;16.09;64.63
66343;DHT22;53144;51.524;5.080;2022-09-30T15:59:13;16.00;64.79
66343;DHT22;53144;51.524;5.080;2022-09-30T16:01:45;15.78;64.82
66343;DHT22;53144;51.524;5.080;2022-09-30T16:06:50;15.66;66.21
66343;DHT22;53144;51.524;5.080;2022-09-30T16:11:43;15.63;66.29
66343;DHT22;53144;51.524;5.080;2022-09-30T16:14:20;15.54;66.80
66343;DHT22;53144;51.524;5.080;2022-09-30T16:16:52;15.46;67.60
66343;DHT22;53144;51.524;5.080;2022-09-30T16:19:18;15.40;67.41
66343;DHT22;53144;51.524;5.080;2022-09-30T16:21:46;15.25;68.35
66343;DHT22;53144;51.524;5.080;2022-09-30T16:26:47;15.20;68.40
66343;DHT22;53144;51.524;5.080;2022-09-30T16:29:13;15.12;68.90
66343;DHT22;53144;51.524;5.080;2022-09-30T16:31:40;15.10;69.69
66343;DHT22;53144;51.524;5.080;2022-09-30T16:34:07;15.06;69.50
66343;DHT22;53144;51.524;5.080;2022-09-30T16:36:37;14.98;70.64
66343;DHT22;53144;51.524;5.080;2022-09-30T16:39:03;14.95;70.60
66343;DHT22;53144;51.524;5.080;2022-09-30T16:41:28;14.91;70.86
66343;DHT22;53144;51.524;5.080;2022-09-30T16:43:57;14.87;70.79
66343;DHT22;53144;51.524;5.080;2022-09-30T16:46:22;14.78;71.00
66343;DHT22;53144;51.524;5.080;2022-09-30T16:48:47;14.75;71.25
66343;DHT22;53144;51.524;5.080;2022-09-30T16:51:14;14.69;71.39
66343;DHT22;53144;51.524;5.080;2022-09-30T16:53:41;14.67;71.31
66343;DHT22;53144;51.524;5.080;2022-09-30T16:56:18;14.64;72.05
66343;DHT22;53144;51.524;5.080;2022-09-30T16:58:44;14.58;72.20
66343;DHT22;53144;51.524;5.080;2022-09-30T17:01:21;14.51;72.10
66343;DHT22;53144;51.524;5.080;2022-09-30T17:03:47;14.33;72.77
66343;DHT22;53144;51.524;5.080;2022-09-30T17:06:14;14.24;72.96
66343;DHT22;53144;51.524;5.080;2022-09-30T17:08:41;14.14;73.47
66343;DHT22;53144;51.524;5.080;2022-09-30T17:11:06;13.99;74.05
66343;DHT22;53144;51.524;5.080;2022-09-30T17:13:32;13.90;74.54
66343;DHT22;53144;51.524;5.080;2022-09-30T17:15:57;13.75;75.27
66343;DHT22;53144;51.524;5.080;2022-09-30T17:18:23;13.72;75.53
66343;DHT22;53144;51.524;5.080;2022-09-30T17:20:48;13.72;75.48
66343;DHT22;53144;51.524;5.080;2022-09-30T17:23:22;13.71;75.75
66343;DHT22;53144;51.524;5.080;2022-09-30T17:25:49;13.68;75.51
66343;DHT22;53144;51.524;5.080;2022-09-30T17:28:15;13.65;75.71
66343;DHT22;53144;51.524;5.080;2022-09-30T17:30:41;13.63;75.49
66343;DHT22;53144;51.524;5.080;2022-09-30T17:33:07;13.58;76.04
66343;DHT22;53144;51.524;5.080;2022-09-30T17:35:36;13.52;76.28
66343;DHT22;53144;51.524;5.080;2022-09-30T17:38:12;13.57;76.05
66343;DHT22;53144;51.524;5.080;2022-09-30T17:40:38;13.51;76.06
66343;DHT22;53144;51.524;5.080;2022-09-30T17:43:22;13.51;75.87
66343;DHT22;53144;51.524;5.080;2022-09-30T17:45:48;13.41;76.13
66343;DHT22;53144;51.524;5.080;2022-09-30T17:48:16;13.28;76.57
66343;DHT22;53144;51.524;5.080;2022-09-30T17:50:48;13.22;76.82
66343;DHT22;53144;51.524;5.080;2022-09-30T17:53:14;13.20;76.94
66343;DHT22;53144;51.524;5.080;2022-09-30T17:55:44;13.10;77.19
66343;DHT22;53144;51.524;5.080;2022-09-30T17:58:12;13.14;76.89
66343;DHT22;53144;51.524;5.080;2022-09-30T18:00:38;13.11;76.88
66343;DHT22;53144;51.524;5.080;2022-09-30T18:03:04;13.07;77.07
66343;DHT22;53144;51.524;5.080;2022-09-30T18:05:31;13.07;76.84
66343;DHT22;53144;51.524;5.080;2022-09-30T18:07:57;13.07;76.80
66343;DHT22;53144;51.524;5.080;2022-09-30T18:10:23;13.04;76.71
66343;DHT22;53144;51.524;5.080;2022-09-30T18:12:49;13.03;76.81
66343;DHT22;53144;51.524;5.080;2022-09-30T18:15:17;13.07;76.74
66343;DHT22;53144;51.524;5.080;2022-09-30T18:17:43;13.06;76.46
66343;DHT22;53144;51.524;5.080;2022-09-30T18:20:08;13.06;76.53
66343;DHT22;53144;51.524;5.080;2022-09-30T18:22:34;13.00;76.50
66343;DHT22;53144;51.524;5.080;2022-09-30T18:24:59;13.01;76.56
66343;DHT22;53144;51.524;5.080;2022-09-30T18:27:43;13.12;75.92
66343;DHT22;53144;51.524;5.080;2022-09-30T18:30:09;13.15;75.95
66343;DHT22;53144;51.524;5.080;2022-09-30T18:32:36;13.12;75.90
66343;DHT22;53144;51.524;5.080;2022-09-30T18:35:01;13.11;76.25
66343;DHT22;53144;51.524;5.080;2022-09-30T18:37:31;13.08;76.23
66343;DHT22;53144;51.524;5.080;2022-09-30T18:39:57;13.06;76.22
66343;DHT22;53144;51.524;5.080;2022-09-30T18:42:22;13.14;75.74
66343;DHT22;53144;51.524;5.080;2022-09-30T18:44:50;13.10;76.01
66343;DHT22;53144;51.524;5.080;2022-09-30T18:47:16;13.12;75.47
66343;DHT22;53144;51.524;5.080;2022-09-30T18:49:43;13.18;75.42
66343;DHT22;53144;51.524;5.080;2022-09-30T18:52:08;13.21;75.26
66343;DHT22;53144;51.524;5.080;2022-09-30T18:54:33;13.20;75.48
66343;DHT22;53144;51.524;5.080;2022-09-30T18:56:59;13.12;75.63
66343;DHT22;53144;51.524;5.080;2022-09-30T18:59:24;13.17;75.09